Time;durP1;ratioP1;P1;durP2;ratioP2;P2;SDS_P1;SDS_P2;PMS_P1;PMS_P2;Temp;Humidity;BMP_temperature;BMP_pressure;BME280_temperature;BME280_humidity;BME280_pressure;Samples;Min_cycle;Max_cycle;Signal;HPM_P1;HPM_P2
2023/07/16 00:01:31;;;;;;;8.00;2.47;;;;;;;18.69;100.00;100806.34;5257932;28;20084;-77
2023/07/16 00:04:02;;;;;;;10.40;2.73;;;;;;;18.97;100.00;100803.69;5257493;28;20017;-71
2023/07/16 00:06:34;;;;;;;7.33;2.60;;;;;;;18.47;100.00;100808.38;5256542;28;20474;-79
2023/07/16 00:09:05;;;;;;;7.60;2.87;;;;;;;18.43;100.00;100813.13;5259328;28;20487;-78
2023/07/16 00:11:36;;;;;;;8.17;2.90;;;;;;;18.80;100.00;100818.59;5255989;28;20048;-79
2023/07/16 00:14:09;;;;;;;7.67;2.40;;;;;;;18.78;100.00;100818.72;5253643;28;20076;-80
2023/07/16 00:16:40;;;;;;;8.83;2.07;;;;;;;18.79;100.00;100807.13;5252546;28;20033;-78
2023/07/16 00:19:12;;;;;;;6.60;2.33;;;;;;;18.80;100.00;100819.41;5257070;28;20478;-81
2023/07/16 00:21:43;;;;;;;5.13;2.20;;;;;;;18.81;100.00;100815.78;5258664;28;20029;-76
2023/07/16 00:24:14;;;;;;;7.13;2.30;;;;;;;18.62;100.00;100814.06;5254902;28;20064;-74
2023/07/16 00:26:46;;;;;;;6.67;2.30;;;;;;;18.66;100.00;100809.28;5255910;28;20044;-77
2023/07/16 00:29:17;;;;;;;7.03;1.83;;;;;;;18.74;100.00;100822.66;5262635;28;20055;-72
2023/07/16 00:31:48;;;;;;;6.23;2.67;;;;;;;18.69;100.00;100815.16;5260355;28;20025;-79
2023/07/16 00:34:20;;;;;;;9.33;2.63;;;;;;;18.54;100.00;100817.41;5255266;28;20027;-78
2023/07/16 00:36:51;;;;;;;7.30;2.60;;;;;;;18.58;100.00;100821.47;5260499;28;20048;-80
2023/07/16 00:39:22;;;;;;;6.60;2.27;;;;;;;18.51;100.00;100825.66;5256512;28;20527;-78
2023/07/16 00:41:54;;;;;;;9.53;2.50;;;;;;;18.68;100.00;100828.53;5255609;28;20036;-79
2023/07/16 00:44:25;;;;;;;8.23;2.30;;;;;;;18.45;100.00;100816.47;5248386;28;20075;-78
2023/07/16 00:46:56;;;;;;;6.90;2.30;;;;;;;18.58;100.00;100826.78;5256378;28;20098;-72
2023/07/16 00:49:29;;;;;;;7.13;2.30;;;;;;;18.71;100.00;100825.59;5254088;28;20052;-76
2023/07/16 00:52:00;;;;;;;8.63;2.70;;;;;;;18.52;100.00;100822.03;5256624;28;20116;-74
2023/07/16 00:54:32;;;;;;;10.73;2.53;;;;;;;18.68;100.00;100831.19;5254873;28;20540;-79
2023/07/16 00:57:04;;;;;;;8.90;3.70;;;;;;;18.32;100.00;100822.09;5264039;28;20403;-78
2023/07/16 00:59:35;;;;;;;8.70;2.43;;;;;;;18.54;100.00;100812.13;5262996;28;20079;-75
2023/07/16 01:02:06;;;;;;;6.57;2.60;;;;;;;18.57;100.00;100819.78;5256750;28;20033;-80
2023/07/16 01:04:38;;;;;;;6.47;2.43;;;;;;;18.39;100.00;100817.06;5252910;28;20024;-77
2023/07/16 01:07:11;;;;;;;8.70;2.90;;;;;;;18.47;100.00;100829.59;5256191;28;20060;-80
2023/07/16 01:09:42;;;;;;;6.70;2.40;;;;;;;18.15;100.00;100826.34;5261150;28;20102;-79
2023/07/16 01:12:14;;;;;;;8.43;3.30;;;;;;;18.26;100.00;100822.66;5260161;28;20045;-71
2023/07/16 01:14:46;;;;;;;6.03;2.20;;;;;;;18.28;100.00;100819.88;5255140;28;20021;-77
2023/07/16 01:17:17;;;;;;;7.90;2.33;;;;;;;18.30;100.00;100813.47;5257839;28;20024;-76
2023/07/16 01:19:49;;;;;;;9.27;2.27;;;;;;;18.35;100.00;100818.31;5257042;28;20032;-77
2023/07/16 01:22:51;;;;;;;7.77;2.87;;;;;;;18.33;100.00;100818.47;5257225;28;20037;-71
2023/07/16 01:25:40;;;;;;;9.10;3.20;;;;;;;18.24;100.00;100816.66;5258533;28;20060;-80
2023/07/16 01:28:56;;;;;;;10.63;3.27;;;;;;;18.36;100.00;100818.16;5255005;28;20037;-78
2023/07/16 01:31:28;;;;;;;5.20;1.97;;;;;;;18.28;100.00;100814.56;5223287;28;20041;-75
2023/07/16 01:34:03;;;;;;;9.43;3.13;;;;;;;18.30;100.00;100823.22;5256867;28;20499;-75
2023/07/16 01:36:36;;;;;;;9.17;2.70;;;;;;;18.22;100.00;100814.16;5257753;28;20036;-75
2023/07/16 01:39:07;;;;;;;7.23;2.73;;;;;;;18.11;100.00;100815.16;5255104;28;20021;-77
2023/07/16 01:41:38;;;;;;;7.93;3.00;;;;;;;18.14;100.00;100814.03;5256105;28;20029;-77
2023/07/16 01:44:10;;;;;;;4.97;2.27;;;;;;;18.16;100.00;100806.78;5253664;28;20025;-75
2023/07/16 01:46:41;;;;;;;10.13;3.50;;;;;;;18.23;100.00;100809.72;5267859;28;20025;-79
2023/07/16 01:49:13;;;;;;;4.23;2.33;;;;;;;18.02;100.00;100810.69;5260675;28;20067;-80
2023/07/16 01:51:44;;;;;;;5.87;2.57;;;;;;;18.07;100.00;100813.75;5259180;28;20420;-78
2023/07/16 01:54:16;;;;;;;8.43;2.53;;;;;;;18.07;100.00;100815.56;5253404;28;20088;-76
2023/07/16 01:56:47;;;;;;;8.80;3.20;;;;;;;18.05;100.00;100815.69;5255300;28;20495;-79
2023/07/16 01:59:18;;;;;;;7.40;2.47;;;;;;;17.90;100.00;100802.91;5255262;28;20107;-79
2023/07/16 02:01:50;;;;;;;6.00;2.77;;;;;;;17.86;100.00;100801.50;5254413;28;20028;-76
2023/07/16 02:04:21;;;;;;;13.13;3.73;;;;;;;18.07;100.00;100802.31;5255772;28;20089;-74
2023/07/16 02:06:52;;;;;;;8.83;2.77;;;;;;;18.07;100.00;100805.81;5253566;28;20025;-77
2023/07/16 02:09:25;;;;;;;11.77;3.33;;;;;;;18.00;100.00;100812.66;5254350;28;20071;-79
2023/07/16 02:11:56;;;;;;;8.70;2.90;;;;;;;17.89;100.00;100811.00;5255369;28;20079;-71
2023/07/16 02:14:27;;;;;;;7.53;3.17;;;;;;;18.05;100.00;100805.09;5254992;28;20052;-78
2023/07/16 02:16:59;;;;;;;6.23;2.77;;;;;;;17.94;100.00;100811.41;5254415;28;20059;-80
2023/07/16 02:19:30;;;;;;;8.37;3.63;;;;;;;17.63;100.00;100812.41;5255206;28;20024;-79
2023/07/16 02:22:01;;;;;;;8.97;2.70;;;;;;;17.87;100.00;100816.41;5254518;28;20024;-79
2023/07/16 02:24:33;;;;;;;8.80;2.83;;;;;;;17.95;100.00;100820.19;5254204;28;20017;-78
2023/07/16 02:27:05;;;;;;;8.57;2.77;;;;;;;17.93;100.00;100822.97;5253332;28;20029;-74
2023/07/16 02:29:36;;;;;;;9.33;3.00;;;;;;;18.04;100.00;100829.94;5258337;28;20026;-76
2023/07/16 02:32:07;;;;;;;7.40;3.30;;;;;;;17.94;100.00;100829.13;5246006;28;20025;-75
2023/07/16 02:34:39;;;;;;;8.60;3.43;;;;;;;17.72;100.00;100836.38;5253399;28;20035;-77
2023/07/16 02:37:10;;;;;;;8.73;3.30;;;;;;;17.86;100.00;100835.97;5262945;28;20043;-76
2023/07/16 02:39:44;;;;;;;6.83;2.83;;;;;;;17.81;100.00;100840.84;5254770;28;20040;-79
2023/07/16 02:42:16;;;;;;;8.83;2.70;;;;;;;17.78;100.00;100834.00;5254572;28;20435;-75
2023/07/16 02:44:47;;;;;;;7.27;2.50;;;;;;;17.81;100.00;100835.53;5269038;28;20063;-79
2023/07/16 02:47:18;;;;;;;8.03;3.70;;;;;;;17.75;100.00;100830.81;5253556;28;20119;-74
2023/07/16 02:49:53;;;;;;;12.77;3.70;;;;;;;17.69;100.00;100837.50;5254182;28;20029;-78
2023/07/16 02:52:24;;;;;;;;;;;;;;;18.19;100.00;100840.97;5254618;28;20424;-78
2023/07/16 02:54:55;;;;;;;6.00;3.07;;;;;;;17.82;100.00;100842.50;5254626;28;19955;-75
2023/07/16 02:57:26;;;;;;;11.77;2.83;;;;;;;17.80;100.00;100849.78;5253787;28;20108;-74
2023/07/16 02:59:58;;;;;;;9.93;3.03;;;;;;;17.72;100.00;100846.97;5254934;28;20031;-77
2023/07/16 03:02:29;;;;;;;10.90;2.20;;;;;;;17.72;100.00;100846.97;5254165;28;20025;-70
2023/07/16 03:05:00;;;;;;;8.53;3.40;;;;;;;17.68;100.00;100845.59;5254629;28;20485;-78
2023/07/16 03:07:32;;;;;;;8.90;3.40;;;;;;;17.68;100.00;100850.88;5253445;28;20021;-79
2023/07/16 03:10:03;;;;;;;8.20;3.10;;;;;;;17.62;100.00;100842.50;5253814;28;20373;-75
2023/07/16 03:12:34;;;;;;;5.03;2.50;;;;;;;17.28;100.00;100837.56;5268967;28;20047;-80
2023/07/16 03:15:06;;;;;;;7.30;2.70;;;;;;;17.50;100.00;100859.50;5260909;28;20532;-78
2023/07/16 03:17:38;;;;;;;8.40;3.40;;;;;;;17.42;100.00;100868.13;5258235;28;20028;-70
2023/07/16 03:20:10;;;;;;;10.07;3.27;;;;;;;17.41;100.00;100864.66;5258734;28;20017;-77
2023/07/16 03:22:41;;;;;;;5.77;3.23;;;;;;;17.36;100.00;100864.22;5257597;28;20057;-78
2023/07/16 03:25:12;;;;;;;9.77;3.27;;;;;;;17.37;100.00;100863.25;5257170;28;20048;-76
2023/07/16 03:27:43;;;;;;;10.20;3.80;;;;;;;17.34;100.00;100871.47;5258122;28;20025;-71
2023/07/16 03:30:15;;;;;;;10.43;4.13;;;;;;;17.35;100.00;100865.19;5272885;28;20104;-77
2023/07/16 03:32:46;;;;;;;10.20;3.63;;;;;;;17.36;100.00;100876.63;5257589;28;20048;-77
2023/07/16 03:35:18;;;;;;;6.77;3.37;;;;;;;17.28;100.00;100869.34;5258258;28;20108;-78
2023/07/16 03:37:49;;;;;;;9.97;3.90;;;;;;;17.17;100.00;100863.19;5256977;28;20049;-72
2023/07/16 03:40:25;;;;;;;11.60;3.70;;;;;;;17.32;100.00;100880.50;5258121;28;20025;-77
2023/07/16 03:42:56;;;;;;;8.80;3.73;;;;;;;17.14;100.00;100874.03;5255978;28;20044;-71
2023/07/16 03:45:28;;;;;;;10.27;3.50;;;;;;;17.16;100.00;100869.47;5257317;28;20467;-77
2023/07/16 03:47:59;;;;;;;9.87;4.43;;;;;;;17.26;100.00;100880.06;5258390;28;20094;-78
2023/07/16 03:50:30;;;;;;;12.87;3.73;;;;;;;17.21;100.00;100886.75;5257889;28;20411;-74
2023/07/16 03:53:03;;;;;;;10.43;4.13;;;;;;;17.15;100.00;100883.66;5263283;28;20031;-76
2023/07/16 03:55:34;;;;;;;8.73;3.20;;;;;;;17.14;100.00;100886.47;5279144;28;20422;-78
2023/07/16 03:58:06;;;;;;;15.37;3.77;;;;;;;17.02;100.00;100885.66;5258447;28;20021;-75
2023/07/16 04:00:37;;;;;;;9.03;3.90;;;;;;;17.07;100.00;100888.75;5257266;28;20025;-75
2023/07/16 04:03:08;;;;;;;9.67;3.40;;;;;;;17.03;100.00;100893.50;5256240;28;20032;-79
2023/07/16 04:05:39;;;;;;;18.97;5.30;;;;;;;16.99;100.00;100904.44;5257891;28;20139;-75
2023/07/16 04:08:11;;;;;;;11.43;4.83;;;;;;;16.98;100.00;100898.34;5255883;28;20066;-77
2023/07/16 04:10:42;;;;;;;13.23;4.70;;;;;;;16.91;100.00;100902.50;5255920;28;20021;-74
2023/07/16 04:13:13;;;;;;;11.17;4.23;;;;;;;16.89;100.00;100909.72;5257589;28;20025;-76
2023/07/16 04:15:45;;;;;;;12.50;3.90;;;;;;;16.95;100.00;100911.00;5256880;28;20032;-77
2023/07/16 04:18:16;;;;;;;11.60;4.40;;;;;;;16.95;100.00;100918.94;5262716;28;20033;-78
2023/07/16 04:20:47;;;;;;;9.03;3.67;;;;;;;16.86;100.00;100921.38;5266447;28;20119;-79
2023/07/16 04:23:19;;;;;;;8.73;3.30;;;;;;;16.80;100.00;100919.28;5254913;28;20027;-75
2023/07/16 04:25:52;;;;;;;14.97;4.30;;;;;;;16.78;100.00;100926.50;5255903;28;20112;-79
2023/07/16 04:28:24;;;;;;;11.13;4.47;;;;;;;16.71;100.00;100934.13;5259357;28;20023;-76
2023/07/16 04:30:55;;;;;;;13.17;5.10;;;;;;;16.82;100.00;100935.84;5267342;28;20695;-79
2023/07/16 04:33:26;;;;;;;10.43;3.93;;;;;;;16.75;100.00;100939.97;5270576;28;20021;-74
2023/07/16 04:35:58;;;;;;;10.13;4.57;;;;;;;16.79;100.00;100942.22;5256440;28;20029;-76
2023/07/16 04:38:29;;;;;;;11.80;4.07;;;;;;;16.79;100.00;100946.69;5256440;28;20031;-82
2023/07/16 04:41:00;;;;;;;11.40;4.20;;;;;;;16.61;100.00;100943.78;5255790;28;20087;-81
2023/07/16 04:43:32;;;;;;;15.20;5.20;;;;;;;16.64;100.00;100949.66;5255063;28;20021;-78
2023/07/16 04:46:03;;;;;;;12.43;4.47;;;;;;;16.56;100.00;100952.13;5256938;28;20445;-77
2023/07/16 04:48:34;;;;;;;10.47;4.30;;;;;;;16.63;100.00;100963.88;5257031;28;20025;-79
2023/07/16 04:51:05;;;;;;;10.13;4.57;;;;;;;16.75;100.00;100958.50;5255039;28;20021;-79
2023/07/16 04:53:37;;;;;;;12.37;4.90;;;;;;;16.73;100.00;100961.28;5255574;28;20047;-79
2023/07/16 04:56:15;;;;;;;14.13;5.07;;;;;;;16.81;100.00;100963.25;5256898;28;20475;-72
2023/07/16 04:58:47;;;;;;;11.67;4.60;;;;;;;16.63;100.00;100963.88;5256631;28;20028;-78
2023/07/16 05:01:18;;;;;;;10.70;5.27;;;;;;;16.78;100.00;100966.16;5256771;28;20056;-76
2023/07/16 05:03:49;;;;;;;16.73;5.77;;;;;;;16.69;100.00;100963.34;5256551;28;20031;-79
2023/07/16 05:06:21;;;;;;;9.07;4.63;;;;;;;16.72;100.00;100971.97;5257001;28;20127;-76
2023/07/16 05:08:52;;;;;;;10.93;4.20;;;;;;;16.74;100.00;100970.06;5260067;28;20049;-78
2023/07/16 05:11:25;;;;;;;9.37;5.13;;;;;;;16.76;100.00;100968.09;5256658;28;20033;-74
2023/07/16 05:13:57;;;;;;;12.43;5.07;;;;;;;16.81;100.00;100966.75;5267286;28;20041;-74
2023/07/16 05:16:28;;;;;;;9.43;4.93;;;;;;;16.76;100.00;100970.75;5259495;28;20032;-79
2023/07/16 05:18:59;;;;;;;10.67;4.63;;;;;;;16.72;100.00;100966.69;5256189;28;20384;-79
2023/07/16 05:21:30;;;;;;;12.40;4.73;;;;;;;16.79;100.00;100978.44;5255968;28;20021;-71
2023/07/16 05:24:02;;;;;;;12.00;5.23;;;;;;;16.66;100.00;100968.88;5265059;28;20025;-77
2023/07/16 05:26:34;;;;;;;10.60;5.47;;;;;;;16.78;100.00;100968.81;5259398;28;20096;-78
2023/07/16 05:29:05;;;;;;;11.30;5.67;;;;;;;16.80;100.00;100977.47;5256462;28;20025;-74
2023/07/16 05:31:36;;;;;;;10.27;5.23;;;;;;;16.80;100.00;100982.75;5255387;28;20475;-78
2023/07/16 05:34:07;;;;;;;12.33;5.37;;;;;;;16.87;100.00;100980.41;5254226;28;20063;-79
2023/07/16 05:36:42;;;;;;;10.23;5.10;;;;;;;16.91;100.00;100976.56;5254432;28;20020;-75
2023/07/16 05:39:13;;;;;;;;;;;;;;;17.27;100.00;100986.78;5255736;28;20025;-77
2023/07/16 05:41:44;;;;;;;11.10;5.27;;;;;;;16.84;100.00;100981.53;5253841;28;19917;-78
2023/07/16 05:44:16;;;;;;;10.57;4.90;;;;;;;16.90;100.00;100993.38;5255246;28;20076;-76
2023/07/16 05:46:47;;;;;;;10.83;4.90;;;;;;;16.85;100.00;100975.25;5255074;28;20048;-74
2023/07/16 05:49:18;;;;;;;11.40;5.53;;;;;;;16.91;100.00;100992.44;5255744;28;20025;-75
2023/07/16 05:51:50;;;;;;;16.30;5.80;;;;;;;16.93;100.00;100987.84;5254540;28;20104;-75
2023/07/16 05:54:22;;;;;;;16.93;6.57;;;;;;;16.97;100.00;100989.25;5255178;28;20075;-77
2023/07/16 05:56:53;;;;;;;13.87;5.90;;;;;;;16.99;100.00;100991.75;5254340;28;20700;-77
2023/07/16 05:59:24;;;;;;;15.40;5.80;;;;;;;17.04;100.00;100997.50;5254987;28;20024;-80
2023/07/16 06:01:57;;;;;;;10.73;5.27;;;;;;;17.03;100.00;100999.31;5254295;28;20108;-76
2023/07/16 06:04:29;;;;;;;12.30;5.87;;;;;;;17.10;100.00;101009.41;5260905;28;20020;-73
2023/07/16 06:07:00;;;;;;;15.07;7.03;;;;;;;17.09;100.00;101010.34;5252186;28;20017;-76
2023/07/16 06:09:33;;;;;;;13.80;5.13;;;;;;;17.11;100.00;101003.97;5255162;28;20131;-79
2023/07/16 06:12:05;;;;;;;14.87;6.33;;;;;;;17.11;100.00;101013.72;5253904;28;20032;-79
2023/07/16 06:14:36;;;;;;;15.33;6.10;;;;;;;17.19;100.00;101010.41;5254367;28;20029;-74
2023/07/16 06:17:07;;;;;;;16.07;6.17;;;;;;;17.24;100.00;101018.81;5255082;28;20045;-80
2023/07/16 06:19:39;;;;;;;16.73;5.87;;;;;;;17.28;100.00;101025.50;5253140;28;20032;-79
2023/07/16 06:22:10;;;;;;;15.77;5.67;;;;;;;17.31;100.00;101030.56;5252555;28;20029;-77
2023/07/16 06:24:41;;;;;;;14.43;6.83;;;;;;;17.33;100.00;101015.34;5255067;28;20025;-72
2023/07/16 06:27:12;;;;;;;18.27;6.93;;;;;;;17.37;100.00;101016.78;5254848;28;20040;-80
2023/07/16 06:29:44;;;;;;;14.60;6.17;;;;;;;17.41;100.00;101026.13;5254550;28;20029;-79
2023/07/16 06:32:15;;;;;;;17.20;7.63;;;;;;;17.50;100.00;101032.44;5259447;28;20033;-78
2023/07/16 06:34:46;;;;;;;11.60;5.67;;;;;;;17.55;100.00;101039.97;5253850;28;20104;-77
2023/07/16 06:37:18;;;;;;;12.80;5.80;;;;;;;17.56;100.00;101028.41;5257364;28;20467;-75
2023/07/16 06:39:49;;;;;;;12.43;5.90;;;;;;;17.61;100.00;101033.31;5265451;28;20021;-77
2023/07/16 06:42:21;;;;;;;16.27;6.50;;;;;;;17.66;100.00;101034.56;5254772;28;20021;-80
2023/07/16 06:44:52;;;;;;;15.63;5.57;;;;;;;17.73;100.00;101028.75;5252812;28;20033;-76
2023/07/16 06:47:24;;;;;;;16.17;6.93;;;;;;;17.90;100.00;101046.66;5254449;28;20033;-78
2023/07/16 06:49:55;;;;;;;11.03;5.17;;;;;;;17.95;100.00;101050.69;5253189;28;20261;-79
2023/07/16 06:52:27;;;;;;;16.20;6.03;;;;;;;18.04;99.87;101052.53;5253277;28;20025;-71
2023/07/16 06:54:58;;;;;;;12.17;6.10;;;;;;;18.08;99.55;101042.50;5254620;28;20025;-75
2023/07/16 06:57:30;;;;;;;12.47;6.20;;;;;;;18.25;100.00;101049.81;5251768;28;20026;-75
2023/07/16 07:00:01;;;;;;;15.40;7.57;;;;;;;18.40;99.50;101064.50;5251643;28;20471;-80
2023/07/16 07:02:33;;;;;;;15.57;6.77;;;;;;;18.45;95.48;101054.31;5253976;28;20033;-77
2023/07/16 07:05:04;;;;;;;13.47;6.33;;;;;;;18.61;94.18;101057.22;5253963;28;20370;-73
2023/07/16 07:07:35;;;;;;;16.23;7.20;;;;;;;18.72;93.71;101061.56;5253098;28;20128;-77
2023/07/16 07:10:07;;;;;;;13.60;6.30;;;;;;;18.94;93.99;101064.03;5249043;28;20076;-76
2023/07/16 07:12:39;;;;;;;11.93;5.83;;;;;;;19.24;93.52;101072.81;5253322;28;20033;-75
2023/07/16 07:15:10;;;;;;;15.40;7.33;;;;;;;19.28;89.41;101066.22;5252436;28;20060;-78
2023/07/16 07:17:42;;;;;;;12.70;6.13;;;;;;;19.58;87.37;101066.13;5251534;28;20040;-76
2023/07/16 07:20:14;;;;;;;16.40;6.20;;;;;;;19.74;84.92;101073.44;5253905;28;20353;-76
2023/07/16 07:22:45;;;;;;;18.20;6.50;;;;;;;19.98;82.85;101084.53;5251021;28;20495;-77
2023/07/16 07:25:16;;;;;;;13.00;6.53;;;;;;;20.20;78.56;101080.66;5251368;28;20018;-78
2023/07/16 07:27:48;;;;;;;11.60;5.57;;;;;;;20.23;80.26;101085.66;5253458;28;20082;-76
2023/07/16 07:30:19;;;;;;;13.93;5.77;;;;;;;20.65;76.83;101088.72;5253326;28;20029;-78
2023/07/16 07:32:50;;;;;;;13.37;6.60;;;;;;;20.94;75.91;101085.00;5251596;28;20063;-75
2023/07/16 07:35:22;;;;;;;13.70;6.73;;;;;;;20.97;72.24;101079.38;5252029;28;20431;-78
2023/07/16 07:37:53;;;;;;;11.53;5.93;;;;;;;21.07;71.85;101065.13;5253417;28;20025;-79
2023/07/16 07:40:26;;;;;;;15.90;6.57;;;;;;;21.75;70.96;101090.13;5254305;28;20025;-79
2023/07/16 07:42:58;;;;;;;11.50;5.70;;;;;;;21.79;68.92;101087.13;5253446;28;20025;-80
2023/07/16 07:45:29;;;;;;;12.07;6.22;;;;;;;22.47;68.42;101088.00;5252761;28;20029;-76
2023/07/16 07:48:00;;;;;;;14.20;6.53;;;;;;;22.74;64.22;101087.03;5262373;28;20021;-77
2023/07/16 07:50:31;;;;;;;12.27;6.00;;;;;;;22.88;60.12;101097.06;5260299;28;20052;-80
2023/07/16 07:53:03;;;;;;;10.43;5.65;;;;;;;23.39;58.23;101090.59;5260029;28;20035;-81
2023/07/16 07:55:37;;;;;;;9.88;5.25;;;;;;;23.83;56.83;101101.84;5260796;28;20515;-80
2023/07/16 07:58:08;;;;;;;9.93;5.22;;;;;;;23.97;54.88;101086.06;5255361;28;20021;-74
2023/07/16 08:00:40;;;;;;;14.02;6.30;;;;;;;24.56;55.73;101100.75;5257406;28;20029;-75
2023/07/16 08:03:11;;;;;;;13.52;5.80;;;;;;;24.65;53.30;101093.50;5257985;28;20517;-75
2023/07/16 08:05:42;;;;;;;9.57;4.57;;;;;;;25.25;50.01;101090.13;5269447;28;20050;-80
2023/07/16 08:08:13;;;;;;;8.57;4.68;;;;;;;25.57;48.53;101096.13;5256576;28;20108;-73
2023/07/16 08:10:46;;;;;;;9.55;5.18;;;;;;;25.58;47.63;101091.59;5258427;28;20025;-77
2023/07/16 08:13:17;;;;;;;11.07;5.28;;;;;;;25.93;46.81;101112.47;5257930;28;20051;-78
2023/07/16 08:15:48;;;;;;;10.30;5.38;;;;;;;26.37;45.68;101097.28;5255382;28;20028;-80
2023/07/16 08:18:19;;;;;;;11.73;5.10;;;;;;;26.62;45.95;101106.81;5258091;28;20024;-77
2023/07/16 08:20:51;;;;;;;10.30;5.68;;;;;;;26.75;42.78;101100.72;5247658;28;20036;-78
2023/07/16 08:23:22;;;;;;;12.13;5.22;;;;;;;27.26;42.00;101114.97;5254316;28;20043;-80
2023/07/16 08:25:53;;;;;;;10.07;5.00;;;;;;;27.60;40.63;101129.41;5257609;28;20342;-81
2023/07/16 08:28:25;;;;;;;11.90;5.18;;;;;;;27.66;40.43;101106.25;5256714;28;20087;-74
2023/07/16 08:30:56;;;;;;;7.15;4.43;;;;;;;27.87;39.95;101101.81;5255515;28;20028;-72
2023/07/16 08:33:27;;;;;;;8.52;4.63;;;;;;;28.15;40.34;101108.94;5257206;28;20105;-79
2023/07/16 08:35:59;;;;;;;8.02;4.15;;;;;;;28.29;39.27;101117.88;5256904;28;20594;-77
2023/07/16 08:38:30;;;;;;;7.00;4.25;;;;;;;27.67;40.53;101103.38;5256416;28;20032;-72
2023/07/16 08:41:01;;;;;;;9.02;4.20;;;;;;;28.62;39.97;101121.66;5256865;28;20025;-78
2023/07/16 08:43:33;;;;;;;11.63;5.13;;;;;;;28.95;38.54;101101.13;5255969;28;20021;-81
2023/07/16 08:46:05;;;;;;;9.52;4.78;;;;;;;28.78;38.59;101122.28;5257242;28;20037;-80
2023/07/16 08:48:36;;;;;;;6.72;4.03;;;;;;;29.08;37.79;101106.53;5255869;28;20060;-77
2023/07/16 08:51:11;;;;;;;8.50;4.35;;;;;;;29.10;36.81;101109.84;5254526;28;20031;-72
2023/07/16 08:53:42;;;;;;;9.65;3.95;;;;;;;29.26;36.53;101113.13;5256284;28;20029;-75
2023/07/16 08:56:14;;;;;;;8.75;4.80;;;;;;;29.37;35.78;101121.59;5257056;28;20029;-73
2023/07/16 08:58:46;;;;;;;8.82;4.97;;;;;;;29.83;35.30;101109.84;5256179;28;20981;-72
2023/07/16 09:01:18;;;;;;;12.35;3.85;;;;;;;29.77;35.14;101126.91;5258038;28;20032;-79
2023/07/16 09:03:50;;;;;;;7.40;4.00;;;;;;;29.67;34.97;101130.03;5255851;28;20021;-80
2023/07/16 09:06:22;;;;;;;6.85;3.90;;;;;;;29.54;35.95;101140.84;5255262;28;20021;-78
2023/07/16 09:08:53;;;;;;;5.93;3.95;;;;;;;29.13;35.61;101140.97;5255163;28;20044;-80
2023/07/16 09:11:24;;;;;;;8.48;4.05;;;;;;;29.23;35.42;101143.22;5256229;28;20032;-77
2023/07/16 09:13:55;;;;;;;11.52;4.30;;;;;;;29.28;36.72;101137.19;5255728;28;20029;-77
2023/07/16 09:16:27;;;;;;;10.27;4.93;;;;;;;28.94;35.88;101142.59;5256205;28;20444;-73
2023/07/16 09:19:07;;;;;;;9.55;4.05;;;;;;;28.85;36.73;101140.09;5254932;28;20058;-81
2023/07/16 09:21:38;;;;;;;8.88;4.30;;;;;;;28.65;36.46;101132.03;5255166;28;20057;-77
2023/07/16 09:24:09;;;;;;;7.25;4.18;;;;;;;28.24;38.58;101145.41;5255896;28;20118;-80
2023/07/16 09:26:52;;;;;;;8.18;4.43;;;;;;;28.65;37.34;101144.66;5255185;28;20057;-78
2023/07/16 09:29:26;;;;;;;9.10;4.60;;;;;;;27.84;37.36;101145.28;5252710;28;20036;-75
2023/07/16 09:32:07;;;;;;;8.85;4.65;;;;;;;28.02;39.28;101145.56;5246939;28;20021;-76
2023/07/16 09:34:38;;;;;;;7.57;3.88;;;;;;;28.48;37.63;101155.84;5242314;28;20087;-75
2023/07/16 09:37:10;;;;;;;7.32;3.65;;;;;;;28.22;37.07;101144.78;5254544;28;20021;-74
2023/07/16 09:39:42;;;;;;;9.23;3.88;;;;;;;27.98;38.23;101141.59;5255473;28;20065;-74
2023/07/16 09:42:13;;;;;;;6.35;3.42;;;;;;;27.62;38.47;101153.41;5255296;28;20082;-74
2023/07/16 09:44:45;;;;;;;6.10;3.63;;;;;;;27.29;38.70;101161.09;5250982;28;20022;-74
2023/07/16 09:47:17;;;;;;;10.73;5.00;;;;;;;27.34;38.85;101151.59;5265796;28;20032;-74
2023/07/16 09:49:48;;;;;;;7.80;4.05;;;;;;;27.05;39.73;101159.69;5255087;28;20032;-75
2023/07/16 09:52:20;;;;;;;6.70;3.60;;;;;;;26.79;39.83;101164.59;5252497;28;20071;-73
2023/07/16 09:54:54;;;;;;;8.63;4.20;;;;;;;26.54;41.02;101167.69;5254886;28;20032;-72
2023/07/16 09:57:28;;;;;;;9.05;4.10;;;;;;;26.47;40.63;101164.09;5253253;28;20059;-75
2023/07/16 10:00:05;;;;;;;7.80;4.03;;;;;;;26.60;41.61;101170.63;5254537;28;20055;-71
2023/07/16 10:02:37;;;;;;;9.02;3.88;;;;;;;26.57;41.18;101178.03;5269666;28;20040;-72
2023/07/16 10:05:22;;;;;;;8.75;4.18;;;;;;;26.61;40.88;101174.97;5253331;28;20017;-72
2023/07/16 10:08:00;;;;;;;7.22;3.83;;;;;;;26.40;41.28;101164.03;5251506;28;20104;-72
2023/07/16 10:10:40;;;;;;;9.70;4.30;;;;;;;26.42;41.98;101171.88;5250237;28;20078;-72
2023/07/16 10:13:12;;;;;;;9.85;4.15;;;;;;;26.13;42.31;101169.03;5251043;28;20040;-74
2023/07/16 10:15:54;;;;;;;7.57;4.43;;;;;;;26.30;42.75;101180.41;5253238;28;20021;-74
2023/07/16 10:18:30;;;;;;;6.97;4.22;;;;;;;26.41;43.13;101197.09;5254410;28;20456;-73
2023/07/16 10:21:06;;;;;;;9.80;5.05;;;;;;;26.04;43.11;101203.22;5253965;28;20040;-73
2023/07/16 10:23:43;;;;;;;9.90;5.10;;;;;;;25.95;43.79;101194.44;5253377;28;20074;-73
2023/07/16 10:26:15;;;;;;;7.70;4.13;;;;;;;26.15;42.66;101193.00;5248138;28;20037;-75
2023/07/16 10:28:46;;;;;;;6.40;4.13;;;;;;;26.20;43.59;101191.44;5253602;28;20037;-74
2023/07/16 10:31:24;;;;;;;9.90;4.53;;;;;;;26.67;43.51;101203.75;5253649;28;20029;-73
2023/07/16 10:33:59;;;;;;;7.47;4.13;;;;;;;26.79;42.82;101202.19;5251569;28;20473;-72
2023/07/16 10:36:37;;;;;;;8.32;4.65;;;;;;;27.23;41.95;101201.38;5251403;28;20125;-72
2023/07/16 10:39:08;;;;;;;10.23;4.47;;;;;;;27.80;39.53;101192.44;5253925;28;20029;-74
2023/07/16 10:41:40;;;;;;;8.70;3.80;;;;;;;28.13;38.39;101207.91;5261360;28;20032;-74
2023/07/16 10:44:15;;;;;;;6.60;3.65;;;;;;;28.82;37.98;101207.06;5252974;28;20033;-74
2023/07/16 10:46:46;;;;;;;8.90;4.25;;;;;;;28.59;37.50;101205.59;5249968;28;20036;-73
2023/07/16 10:49:27;;;;;;;7.85;3.78;;;;;;;28.87;38.21;101208.09;5231549;28;20055;-73
2023/07/16 10:52:02;;;;;;;6.55;3.80;;;;;;;28.81;37.81;101218.88;5243909;28;20475;-76
2023/07/16 10:54:33;;;;;;;10.10;3.40;;;;;;;28.52;37.20;101208.28;5239476;28;20021;-76
2023/07/16 10:57:04;;;;;;;7.20;3.95;;;;;;;28.27;37.35;101228.50;5242253;28;20031;-72
2023/07/16 10:59:38;;;;;;;10.55;3.90;;;;;;;27.66;38.01;101225.47;5239484;28;20096;-73
2023/07/16 11:02:14;;;;;;;6.72;3.70;;;;;;;27.64;38.99;101232.91;5223592;28;20029;-75
2023/07/16 11:04:46;;;;;;;7.78;3.97;;;;;;;27.36;38.94;101235.59;5243895;28;20174;-74
2023/07/16 11:07:18;;;;;;;9.85;4.25;;;;;;;26.99;39.53;101236.50;5245163;28;20033;-76
2023/07/16 11:09:54;;;;;;;11.18;3.90;;;;;;;27.13;39.88;101242.03;5244233;28;20052;-74
2023/07/16 11:12:25;;;;;;;8.90;4.00;;;;;;;26.81;40.89;101235.09;5220592;28;20171;-76
2023/07/16 11:14:56;;;;;;;7.57;3.92;;;;;;;26.76;41.01;101242.88;5239505;28;20100;-72
2023/07/16 11:17:28;;;;;;;6.53;4.07;;;;;;;26.32;41.69;101240.09;5243515;28;20087;-72
2023/07/16 11:20:02;;;;;;;8.80;3.58;;;;;;;26.24;42.59;101247.41;5244452;28;20029;-72
2023/07/16 11:22:37;;;;;;;8.00;4.35;;;;;;;26.19;43.07;101243.47;5243976;28;20605;-72
2023/07/16 11:25:12;;;;;;;5.07;3.78;;;;;;;25.97;43.94;101242.56;5245643;28;20058;-71
2023/07/16 11:27:43;;;;;;;6.80;3.85;;;;;;;26.01;43.27;101249.19;5246691;28;20048;-75
2023/07/16 11:30:14;;;;;;;12.43;4.60;;;;;;;25.82;44.35;101247.91;5247620;28;20029;-75
2023/07/16 11:32:48;;;;;;;9.75;4.57;;;;;;;26.00;43.71;101255.59;5252479;28;20505;-72
2023/07/16 11:35:20;;;;;;;;;;;;;;;26.87;41.88;101248.78;5255371;28;20075;-73
2023/07/16 11:37:51;;;;;;;6.07;4.05;;;;;;;25.89;43.62;101248.00;5250806;28;19974;-73
2023/07/16 11:40:22;;;;;;;8.55;4.75;;;;;;;25.71;44.64;101258.06;5257358;28;20078;-74